sensor_id;sensor_type;location;lat;lon;timestamp;P1;durP1;ratioP1;P2;durP2;ratioP2
19985;SDS011;10154;52.474;10.768;2024-03-22T00:01:46;19.20;;;9.40;;
19985;SDS011;10154;52.474;10.768;2024-03-22T00:04:11;18.73;;;9.53;;
19985;SDS011;10154;52.474;10.768;2024-03-22T00:06:37;21.17;;;9.30;;
19985;SDS011;10154;52.474;10.768;2024-03-22T00:09:03;26.37;;;9.67;;
19985;SDS011;10154;52.474;10.768;2024-03-22T00:11:28;16.67;;;8.97;;
19985;SDS011;10154;52.474;10.768;2024-03-22T00:13:53;22.10;;;9.43;;
19985;SDS011;10154;52.474;10.768;2024-03-22T00:16:19;19.87;;;9.30;;
19985;SDS011;10154;52.474;10.768;2024-03-22T00:18:44;18.03;;;9.07;;
19985;SDS011;10154;52.474;10.768;2024-03-22T00:21:09;16.83;;;8.70;;
19985;SDS011;10154;52.474;10.768;2024-03-22T00:23:35;15.83;;;9.03;;
19985;SDS011;10154;52.474;10.768;2024-03-22T00:26:00;23.33;;;10.30;;
19985;SDS011;10154;52.474;10.768;2024-03-22T00:28:26;19.30;;;9.47;;
19985;SDS011;10154;52.474;10.768;2024-03-22T00:30:51;17.90;;;9.83;;
19985;SDS011;10154;52.474;10.768;2024-03-22T00:33:16;20.03;;;9.60;;
19985;SDS011;10154;52.474;10.768;2024-03-22T00:35:42;21.03;;;10.47;;
19985;SDS011;10154;52.474;10.768;2024-03-22T00:38:07;20.07;;;10.33;;
19985;SDS011;10154;52.474;10.768;2024-03-22T00:40:33;18.17;;;10.13;;
19985;SDS011;10154;52.474;10.768;2024-03-22T00:42:58;22.43;;;10.10;;
19985;SDS011;10154;52.474;10.768;2024-03-22T00:45:23;23.00;;;10.30;;
19985;SDS011;10154;52.474;10.768;2024-03-22T00:47:49;21.40;;;10.57;;
19985;SDS011;10154;52.474;10.768;2024-03-22T00:50:14;21.23;;;9.67;;
19985;SDS011;10154;52.474;10.768;2024-03-22T00:52:39;23.67;;;10.57;;
19985;SDS011;10154;52.474;10.768;2024-03-22T00:55:05;20.10;;;10.63;;
19985;SDS011;10154;52.474;10.768;2024-03-22T00:57:30;21.80;;;10.93;;
19985;SDS011;10154;52.474;10.768;2024-03-22T00:59:56;25.03;;;11.90;;
19985;SDS011;10154;52.474;10.768;2024-03-22T01:02:21;23.33;;;11.63;;
19985;SDS011;10154;52.474;10.768;2024-03-22T01:04:47;25.73;;;13.20;;
19985;SDS011;10154;52.474;10.768;2024-03-22T01:07:13;21.57;;;11.33;;
19985;SDS011;10154;52.474;10.768;2024-03-22T01:09:38;27.50;;;12.87;;
19985;SDS011;10154;52.474;10.768;2024-03-22T01:12:03;24.17;;;12.40;;
19985;SDS011;10154;52.474;10.768;2024-03-22T01:14:30;25.53;;;12.27;;
19985;SDS011;10154;52.474;10.768;2024-03-22T01:16:55;29.90;;;14.30;;
19985;SDS011;10154;52.474;10.768;2024-03-22T01:19:20;25.87;;;13.70;;
19985;SDS011;10154;52.474;10.768;2024-03-22T01:21:46;33.20;;;13.50;;
19985;SDS011;10154;52.474;10.768;2024-03-22T01:24:11;29.97;;;13.57;;
19985;SDS011;10154;52.474;10.768;2024-03-22T01:26:37;29.97;;;15.50;;
19985;SDS011;10154;52.474;10.768;2024-03-22T01:29:03;32.07;;;15.33;;
19985;SDS011;10154;52.474;10.768;2024-03-22T01:31:28;33.37;;;15.87;;
19985;SDS011;10154;52.474;10.768;2024-03-22T01:33:53;35.90;;;15.87;;
19985;SDS011;10154;52.474;10.768;2024-03-22T01:36:18;33.03;;;15.80;;
19985;SDS011;10154;52.474;10.768;2024-03-22T01:38:44;35.60;;;15.23;;
19985;SDS011;10154;52.474;10.768;2024-03-22T01:41:09;34.63;;;16.27;;
19985;SDS011;10154;52.474;10.768;2024-03-22T01:43:34;36.87;;;17.60;;
19985;SDS011;10154;52.474;10.768;2024-03-22T01:46:00;43.87;;;18.63;;
19985;SDS011;10154;52.474;10.768;2024-03-22T01:48:25;34.13;;;16.37;;
19985;SDS011;10154;52.474;10.768;2024-03-22T01:50:50;46.70;;;18.07;;
19985;SDS011;10154;52.474;10.768;2024-03-22T01:53:17;40.83;;;18.27;;
19985;SDS011;10154;52.474;10.768;2024-03-22T01:55:43;35.67;;;17.47;;
19985;SDS011;10154;52.474;10.768;2024-03-22T01:58:08;42.50;;;18.97;;
19985;SDS011;10154;52.474;10.768;2024-03-22T02:00:33;41.07;;;18.30;;
19985;SDS011;10154;52.474;10.768;2024-03-22T02:02:59;42.10;;;18.67;;
19985;SDS011;10154;52.474;10.768;2024-03-22T02:05:24;39.73;;;19.37;;
19985;SDS011;10154;52.474;10.768;2024-03-22T02:07:49;41.87;;;18.47;;
19985;SDS011;10154;52.474;10.768;2024-03-22T02:10:15;41.20;;;18.87;;
19985;SDS011;10154;52.474;10.768;2024-03-22T02:12:41;43.80;;;18.23;;
19985;SDS011;10154;52.474;10.768;2024-03-22T02:15:07;40.73;;;18.30;;
19985;SDS011;10154;52.474;10.768;2024-03-22T02:17:33;44.67;;;20.30;;
19985;SDS011;10154;52.474;10.768;2024-03-22T02:19:59;46.10;;;19.83;;
19985;SDS011;10154;52.474;10.768;2024-03-22T02:22:25;45.17;;;20.27;;
19985;SDS011;10154;52.474;10.768;2024-03-22T02:24:51;42.57;;;19.87;;
19985;SDS011;10154;52.474;10.768;2024-03-22T02:27:16;43.10;;;21.33;;
19985;SDS011;10154;52.474;10.768;2024-03-22T02:29:42;48.43;;;21.30;;
19985;SDS011;10154;52.474;10.768;2024-03-22T02:32:07;45.00;;;20.63;;
19985;SDS011;10154;52.474;10.768;2024-03-22T02:34:32;43.93;;;20.93;;
19985;SDS011;10154;52.474;10.768;2024-03-22T02:36:58;44.73;;;21.03;;
19985;SDS011;10154;52.474;10.768;2024-03-22T02:39:23;49.37;;;21.33;;
19985;SDS011;10154;52.474;10.768;2024-03-22T02:41:50;46.10;;;21.10;;
19985;SDS011;10154;52.474;10.768;2024-03-22T02:44:15;48.33;;;21.80;;
19985;SDS011;10154;52.474;10.768;2024-03-22T02:46:41;49.47;;;21.57;;
19985;SDS011;10154;52.474;10.768;2024-03-22T02:49:06;48.13;;;21.77;;
19985;SDS011;10154;52.474;10.768;2024-03-22T02:51:31;47.07;;;21.43;;
19985;SDS011;10154;52.474;10.768;2024-03-22T02:53:57;48.40;;;23.10;;
19985;SDS011;10154;52.474;10.768;2024-03-22T02:56:22;52.87;;;21.57;;
19985;SDS011;10154;52.474;10.768;2024-03-22T02:58:49;52.30;;;22.03;;
19985;SDS011;10154;52.474;10.768;2024-03-22T03:01:14;50.57;;;23.03;;
19985;SDS011;10154;52.474;10.768;2024-03-22T03:03:40;52.77;;;22.43;;
19985;SDS011;10154;52.474;10.768;2024-03-22T03:06:05;51.97;;;22.87;;
19985;SDS011;10154;52.474;10.768;2024-03-22T03:08:30;52.77;;;24.33;;
19985;SDS011;10154;52.474;10.768;2024-03-22T03:10:56;51.80;;;23.43;;
19985;SDS011;10154;52.474;10.768;2024-03-22T03:13:21;49.60;;;23.27;;
19985;SDS011;10154;52.474;10.768;2024-03-22T03:15:46;53.97;;;24.10;;
19985;SDS011;10154;52.474;10.768;2024-03-22T03:18:12;51.70;;;22.00;;
19985;SDS011;10154;52.474;10.768;2024-03-22T03:20:37;50.13;;;24.00;;
19985;SDS011;10154;52.474;10.768;2024-03-22T03:23:02;59.63;;;24.47;;
19985;SDS011;10154;52.474;10.768;2024-03-22T03:25:28;52.33;;;24.67;;
19985;SDS011;10154;52.474;10.768;2024-03-22T03:27:53;52.70;;;24.17;;
19985;SDS011;10154;52.474;10.768;2024-03-22T03:30:19;57.57;;;24.60;;
19985;SDS011;10154;52.474;10.768;2024-03-22T03:32:44;55.33;;;24.10;;
19985;SDS011;10154;52.474;10.768;2024-03-22T03:35:09;54.73;;;23.07;;
19985;SDS011;10154;52.474;10.768;2024-03-22T03:37:35;53.37;;;23.67;;
19985;SDS011;10154;52.474;10.768;2024-03-22T03:40:00;54.60;;;24.47;;
19985;SDS011;10154;52.474;10.768;2024-03-22T03:42:25;53.40;;;24.57;;
19985;SDS011;10154;52.474;10.768;2024-03-22T03:44:51;56.23;;;24.23;;
19985;SDS011;10154;52.474;10.768;2024-03-22T03:47:17;55.80;;;24.97;;
19985;SDS011;10154;52.474;10.768;2024-03-22T03:49:44;53.67;;;24.43;;
19985;SDS011;10154;52.474;10.768;2024-03-22T03:52:10;53.87;;;24.83;;
19985;SDS011;10154;52.474;10.768;2024-03-22T03:54:35;60.67;;;25.27;;
19985;SDS011;10154;52.474;10.768;2024-03-22T03:57:01;51.30;;;24.53;;
19985;SDS011;10154;52.474;10.768;2024-03-22T03:59:26;53.83;;;23.67;;
19985;SDS011;10154;52.474;10.768;2024-03-22T04:01:52;53.07;;;23.70;;
19985;SDS011;10154;52.474;10.768;2024-03-22T04:04:17;49.83;;;22.83;;
19985;SDS011;10154;52.474;10.768;2024-03-22T04:06:43;56.37;;;23.63;;
19985;SDS011;10154;52.474;10.768;2024-03-22T04:09:09;49.80;;;23.83;;
19985;SDS011;10154;52.474;10.768;2024-03-22T04:11:34;54.13;;;23.60;;
19985;SDS011;10154;52.474;10.768;2024-03-22T04:14:00;53.03;;;22.60;;
19985;SDS011;10154;52.474;10.768;2024-03-22T04:16:25;52.10;;;23.47;;
19985;SDS011;10154;52.474;10.768;2024-03-22T04:18:50;54.77;;;24.30;;
19985;SDS011;10154;52.474;10.768;2024-03-22T04:21:17;52.40;;;23.60;;
19985;SDS011;10154;52.474;10.768;2024-03-22T04:23:42;48.63;;;22.70;;
19985;SDS011;10154;52.474;10.768;2024-03-22T04:26:07;55.10;;;23.20;;
19985;SDS011;10154;52.474;10.768;2024-03-22T04:28:33;54.17;;;22.23;;
19985;SDS011;10154;52.474;10.768;2024-03-22T04:30:59;51.30;;;23.23;;
19985;SDS011;10154;52.474;10.768;2024-03-22T04:33:28;51.00;;;22.97;;
19985;SDS011;10154;52.474;10.768;2024-03-22T04:35:54;50.50;;;22.80;;
19985;SDS011;10154;52.474;10.768;2024-03-22T04:38:21;49.10;;;21.70;;
19985;SDS011;10154;52.474;10.768;2024-03-22T04:40:46;48.87;;;22.23;;
19985;SDS011;10154;52.474;10.768;2024-03-22T04:43:12;53.23;;;22.50;;
19985;SDS011;10154;52.474;10.768;2024-03-22T04:45:37;44.80;;;20.93;;
19985;SDS011;10154;52.474;10.768;2024-03-22T04:48:03;48.10;;;21.93;;
19985;SDS011;10154;52.474;10.768;2024-03-22T04:50:29;47.73;;;22.10;;
19985;SDS011;10154;52.474;10.768;2024-03-22T04:52:55;47.40;;;22.77;;
19985;SDS011;10154;52.474;10.768;2024-03-22T04:55:20;44.60;;;21.27;;
19985;SDS011;10154;52.474;10.768;2024-03-22T04:57:45;48.03;;;21.77;;
19985;SDS011;10154;52.474;10.768;2024-03-22T05:00:11;50.87;;;21.53;;
19985;SDS011;10154;52.474;10.768;2024-03-22T05:02:37;44.77;;;20.77;;
19985;SDS011;10154;52.474;10.768;2024-03-22T05:05:02;48.10;;;21.40;;
19985;SDS011;10154;52.474;10.768;2024-03-22T05:07:27;45.37;;;21.07;;
19985;SDS011;10154;52.474;10.768;2024-03-22T05:09:53;46.47;;;20.90;;
19985;SDS011;10154;52.474;10.768;2024-03-22T05:12:18;48.27;;;22.27;;
19985;SDS011;10154;52.474;10.768;2024-03-22T05:14:43;47.77;;;21.50;;
19985;SDS011;10154;52.474;10.768;2024-03-22T05:17:09;44.87;;;21.10;;
19985;SDS011;10154;52.474;10.768;2024-03-22T05:19:34;46.10;;;20.27;;
19985;SDS011;10154;52.474;10.768;2024-03-22T05:21:59;44.70;;;20.63;;
19985;SDS011;10154;52.474;10.768;2024-03-22T05:24:25;46.47;;;19.87;;
19985;SDS011;10154;52.474;10.768;2024-03-22T05:26:50;45.23;;;19.67;;
19985;SDS011;10154;52.474;10.768;2024-03-22T05:29:16;41.63;;;19.17;;
19985;SDS011;10154;52.474;10.768;2024-03-22T05:31:48;46.40;;;19.73;;
19985;SDS011;10154;52.474;10.768;2024-03-22T05:34:16;44.60;;;19.63;;
19985;SDS011;10154;52.474;10.768;2024-03-22T05:36:41;46.50;;;20.37;;
19985;SDS011;10154;52.474;10.768;2024-03-22T05:39:06;43.37;;;19.40;;
19985;SDS011;10154;52.474;10.768;2024-03-22T05:41:32;45.17;;;20.10;;
19985;SDS011;10154;52.474;10.768;2024-03-22T05:43:57;48.03;;;20.87;;
19985;SDS011;10154;52.474;10.768;2024-03-22T05:46:22;43.03;;;19.10;;
19985;SDS011;10154;52.474;10.768;2024-03-22T05:48:48;43.83;;;19.37;;
19985;SDS011;10154;52.474;10.768;2024-03-22T05:51:15;41.90;;;19.03;;
19985;SDS011;10154;52.474;10.768;2024-03-22T05:53:41;45.07;;;19.53;;
19985;SDS011;10154;52.474;10.768;2024-03-22T05:56:07;44.20;;;19.80;;
19985;SDS011;10154;52.474;10.768;2024-03-22T05:58:33;40.43;;;18.67;;
19985;SDS011;10154;52.474;10.768;2024-03-22T06:00:58;42.93;;;18.93;;
19985;SDS011;10154;52.474;10.768;2024-03-22T06:03:23;43.40;;;19.73;;
19985;SDS011;10154;52.474;10.768;2024-03-22T06:05:49;44.10;;;18.93;;
19985;SDS011;10154;52.474;10.768;2024-03-22T06:08:14;41.97;;;18.17;;
19985;SDS011;10154;52.474;10.768;2024-03-22T06:10:44;45.43;;;19.27;;
19985;SDS011;10154;52.474;10.768;2024-03-22T06:13:10;43.00;;;18.90;;
19985;SDS011;10154;52.474;10.768;2024-03-22T06:15:35;40.97;;;18.10;;
19985;SDS011;10154;52.474;10.768;2024-03-22T06:18:01;42.20;;;17.57;;
19985;SDS011;10154;52.474;10.768;2024-03-22T06:20:26;43.00;;;18.93;;
19985;SDS011;10154;52.474;10.768;2024-03-22T06:22:52;39.73;;;17.70;;
19985;SDS011;10154;52.474;10.768;2024-03-22T06:25:17;42.30;;;18.83;;
19985;SDS011;10154;52.474;10.768;2024-03-22T06:27:42;42.87;;;19.30;;
19985;SDS011;10154;52.474;10.768;2024-03-22T06:30:08;42.27;;;18.80;;
19985;SDS011;10154;52.474;10.768;2024-03-22T06:32:33;44.10;;;18.30;;
19985;SDS011;10154;52.474;10.768;2024-03-22T06:34:59;45.00;;;17.83;;
19985;SDS011;10154;52.474;10.768;2024-03-22T06:37:24;41.83;;;18.30;;
19985;SDS011;10154;52.474;10.768;2024-03-22T06:39:49;49.97;;;20.03;;
19985;SDS011;10154;52.474;10.768;2024-03-22T06:42:15;40.80;;;17.83;;
19985;SDS011;10154;52.474;10.768;2024-03-22T06:44:40;41.70;;;17.83;;
19985;SDS011;10154;52.474;10.768;2024-03-22T06:47:05;43.33;;;18.23;;
19985;SDS011;10154;52.474;10.768;2024-03-22T06:49:31;42.93;;;16.43;;
19985;SDS011;10154;52.474;10.768;2024-03-22T06:51:56;39.33;;;16.90;;
19985;SDS011;10154;52.474;10.768;2024-03-22T06:54:21;45.10;;;18.40;;
19985;SDS011;10154;52.474;10.768;2024-03-22T06:56:47;45.00;;;17.53;;
19985;SDS011;10154;52.474;10.768;2024-03-22T06:59:12;43.23;;;18.20;;
19985;SDS011;10154;52.474;10.768;2024-03-22T07:01:38;44.73;;;19.57;;
19985;SDS011;10154;52.474;10.768;2024-03-22T07:04:04;48.63;;;19.83;;
19985;SDS011;10154;52.474;10.768;2024-03-22T07:06:29;43.37;;;18.63;;
19985;SDS011;10154;52.474;10.768;2024-03-22T07:08:55;44.63;;;18.80;;
19985;SDS011;10154;52.474;10.768;2024-03-22T07:11:20;44.70;;;18.50;;
19985;SDS011;10154;52.474;10.768;2024-03-22T07:13:46;46.87;;;19.73;;
19985;SDS011;10154;52.474;10.768;2024-03-22T07:16:11;42.00;;;19.70;;
19985;SDS011;10154;52.474;10.768;2024-03-22T07:18:37;44.60;;;18.43;;
19985;SDS011;10154;52.474;10.768;2024-03-22T07:21:02;45.93;;;18.90;;
19985;SDS011;10154;52.474;10.768;2024-03-22T07:23:28;46.50;;;19.47;;
19985;SDS011;10154;52.474;10.768;2024-03-22T07:25:54;44.53;;;19.50;;
19985;SDS011;10154;52.474;10.768;2024-03-22T07:28:19;42.63;;;18.67;;
19985;SDS011;10154;52.474;10.768;2024-03-22T07:30:44;43.17;;;19.30;;
19985;SDS011;10154;52.474;10.768;2024-03-22T07:33:10;44.77;;;18.60;;
19985;SDS011;10154;52.474;10.768;2024-03-22T07:35:38;41.33;;;18.23;;
19985;SDS011;10154;52.474;10.768;2024-03-22T07:38:04;45.77;;;17.93;;
19985;SDS011;10154;52.474;10.768;2024-03-22T07:40:29;40.53;;;17.80;;
19985;SDS011;10154;52.474;10.768;2024-03-22T07:42:55;42.60;;;20.20;;
19985;SDS011;10154;52.474;10.768;2024-03-22T07:45:20;40.90;;;18.17;;
19985;SDS011;10154;52.474;10.768;2024-03-22T07:47:45;42.47;;;18.07;;
19985;SDS011;10154;52.474;10.768;2024-03-22T07:50:11;38.40;;;16.13;;
19985;SDS011;10154;52.474;10.768;2024-03-22T07:52:36;40.77;;;18.37;;
19985;SDS011;10154;52.474;10.768;2024-03-22T07:55:01;43.30;;;18.73;;
19985;SDS011;10154;52.474;10.768;2024-03-22T07:57:28;38.87;;;17.33;;
19985;SDS011;10154;52.474;10.768;2024-03-22T07:59:56;46.17;;;18.33;;
19985;SDS011;10154;52.474;10.768;2024-03-22T08:02:22;39.63;;;16.60;;
19985;SDS011;10154;52.474;10.768;2024-03-22T08:04:47;38.17;;;16.60;;
19985;SDS011;10154;52.474;10.768;2024-03-22T08:07:12;41.33;;;17.90;;
19985;SDS011;10154;52.474;10.768;2024-03-22T08:09:38;34.10;;;17.03;;
19985;SDS011;10154;52.474;10.768;2024-03-22T08:12:03;38.93;;;19.27;;
19985;SDS011;10154;52.474;10.768;2024-03-22T08:14:29;36.07;;;16.60;;
19985;SDS011;10154;52.474;10.768;2024-03-22T08:16:54;36.37;;;15.83;;
19985;SDS011;10154;52.474;10.768;2024-03-22T08:19:19;42.63;;;18.37;;
19985;SDS011;10154;52.474;10.768;2024-03-22T08:21:45;33.73;;;16.37;;
19985;SDS011;10154;52.474;10.768;2024-03-22T08:24:10;38.77;;;16.40;;
19985;SDS011;10154;52.474;10.768;2024-03-22T08:26:35;40.90;;;17.10;;
19985;SDS011;10154;52.474;10.768;2024-03-22T08:29:00;36.60;;;15.80;;
19985;SDS011;10154;52.474;10.768;2024-03-22T08:31:26;35.27;;;14.87;;
19985;SDS011;10154;52.474;10.768;2024-03-22T08:33:53;36.13;;;17.23;;
19985;SDS011;10154;52.474;10.768;2024-03-22T08:36:20;35.63;;;17.30;;
19985;SDS011;10154;52.474;10.768;2024-03-22T08:38:46;36.57;;;16.00;;
19985;SDS011;10154;52.474;10.768;2024-03-22T08:41:11;33.57;;;15.73;;
19985;SDS011;10154;52.474;10.768;2024-03-22T08:43:36;37.43;;;16.57;;
19985;SDS011;10154;52.474;10.768;2024-03-22T08:46:02;37.00;;;15.10;;
19985;SDS011;10154;52.474;10.768;2024-03-22T08:48:28;37.47;;;16.83;;
19985;SDS011;10154;52.474;10.768;2024-03-22T08:50:54;37.97;;;17.10;;
19985;SDS011;10154;52.474;10.768;2024-03-22T08:53:19;32.20;;;15.83;;
19985;SDS011;10154;52.474;10.768;2024-03-22T08:55:45;38.80;;;16.37;;
19985;SDS011;10154;52.474;10.768;2024-03-22T08:58:11;34.23;;;16.27;;
19985;SDS011;10154;52.474;10.768;2024-03-22T09:00:37;38.70;;;16.80;;
19985;SDS011;10154;52.474;10.768;2024-03-22T09:03:03;34.47;;;15.60;;
19985;SDS011;10154;52.474;10.768;2024-03-22T09:05:28;38.40;;;17.93;;
19985;SDS011;10154;52.474;10.768;2024-03-22T09:07:54;34.67;;;16.03;;
19985;SDS011;10154;52.474;10.768;2024-03-22T09:10:20;33.07;;;15.33;;
19985;SDS011;10154;52.474;10.768;2024-03-22T09:12:46;38.07;;;16.27;;
19985;SDS011;10154;52.474;10.768;2024-03-22T09:15:11;31.33;;;14.67;;
19985;SDS011;10154;52.474;10.768;2024-03-22T09:17:36;35.00;;;16.37;;
19985;SDS011;10154;52.474;10.768;2024-03-22T09:20:02;34.33;;;15.90;;
19985;SDS011;10154;52.474;10.768;2024-03-22T09:22:29;32.50;;;15.43;;
19985;SDS011;10154;52.474;10.768;2024-03-22T09:24:54;35.00;;;14.87;;
19985;SDS011;10154;52.474;10.768;2024-03-22T09:27:19;34.07;;;14.13;;
19985;SDS011;10154;52.474;10.768;2024-03-22T09:29:45;36.90;;;15.57;;
19985;SDS011;10154;52.474;10.768;2024-03-22T09:32:10;30.57;;;13.57;;
19985;SDS011;10154;52.474;10.768;2024-03-22T09:34:35;35.40;;;15.30;;
19985;SDS011;10154;52.474;10.768;2024-03-22T09:37:01;32.27;;;15.10;;
19985;SDS011;10154;52.474;10.768;2024-03-22T09:39:27;31.13;;;14.85;;
19985;SDS011;10154;52.474;10.768;2024-03-22T09:41:52;35.07;;;15.70;;
19985;SDS011;10154;52.474;10.768;2024-03-22T09:44:21;32.25;;;13.93;;
19985;SDS011;10154;52.474;10.768;2024-03-22T09:46:48;29.27;;;13.97;;
19985;SDS011;10154;52.474;10.768;2024-03-22T09:49:15;34.13;;;16.15;;
19985;SDS011;10154;52.474;10.768;2024-03-22T09:51:42;36.47;;;15.50;;
19985;SDS011;10154;52.474;10.768;2024-03-22T09:54:08;31.10;;;14.27;;
19985;SDS011;10154;52.474;10.768;2024-03-22T09:56:34;31.80;;;15.70;;
19985;SDS011;10154;52.474;10.768;2024-03-22T09:59:00;29.23;;;14.57;;
19985;SDS011;10154;52.474;10.768;2024-03-22T10:01:25;32.55;;;14.95;;
19985;SDS011;10154;52.474;10.768;2024-03-22T10:03:51;31.92;;;15.45;;
19985;SDS011;10154;52.474;10.768;2024-03-22T10:06:17;33.25;;;15.50;;
19985;SDS011;10154;52.474;10.768;2024-03-22T10:08:44;34.13;;;15.82;;
19985;SDS011;10154;52.474;10.768;2024-03-22T10:11:09;33.97;;;15.75;;
19985;SDS011;10154;52.474;10.768;2024-03-22T10:13:35;32.20;;;15.93;;
19985;SDS011;10154;52.474;10.768;2024-03-22T10:16:00;35.20;;;15.83;;
19985;SDS011;10154;52.474;10.768;2024-03-22T10:18:26;32.90;;;15.63;;
19985;SDS011;10154;52.474;10.768;2024-03-22T10:21:04;35.97;;;15.00;;
19985;SDS011;10154;52.474;10.768;2024-03-22T10:23:30;39.20;;;17.17;;
19985;SDS011;10154;52.474;10.768;2024-03-22T10:25:56;32.13;;;15.07;;
19985;SDS011;10154;52.474;10.768;2024-03-22T10:28:23;34.60;;;15.90;;
19985;SDS011;10154;52.474;10.768;2024-03-22T10:30:51;32.73;;;16.33;;
19985;SDS011;10154;52.474;10.768;2024-03-22T10:33:20;37.07;;;16.37;;
19985;SDS011;10154;52.474;10.768;2024-03-22T10:35:51;32.23;;;14.70;;
19985;SDS011;10154;52.474;10.768;2024-03-22T10:38:18;34.07;;;15.93;;
19985;SDS011;10154;52.474;10.768;2024-03-22T10:40:44;39.10;;;17.10;;
19985;SDS011;10154;52.474;10.768;2024-03-22T10:43:11;38.87;;;16.63;;
19985;SDS011;10154;52.474;10.768;2024-03-22T10:45:37;38.00;;;16.40;;
19985;SDS011;10154;52.474;10.768;2024-03-22T10:48:03;38.20;;;15.20;;
19985;SDS011;10154;52.474;10.768;2024-03-22T10:50:39;38.03;;;16.33;;
19985;SDS011;10154;52.474;10.768;2024-03-22T10:53:07;34.47;;;16.00;;
19985;SDS011;10154;52.474;10.768;2024-03-22T10:55:52;39.90;;;16.43;;
19985;SDS011;10154;52.474;10.768;2024-03-22T10:58:22;31.70;;;14.40;;
19985;SDS011;10154;52.474;10.768;2024-03-22T11:00:50;34.60;;;14.93;;
19985;SDS011;10154;52.474;10.768;2024-03-22T11:03:19;30.70;;;14.43;;
19985;SDS011;10154;52.474;10.768;2024-03-22T11:05:46;31.57;;;14.50;;
19985;SDS011;10154;52.474;10.768;2024-03-22T11:08:27;30.33;;;13.73;;
19985;SDS011;10154;52.474;10.768;2024-03-22T11:10:53;32.67;;;13.97;;
19985;SDS011;10154;52.474;10.768;2024-03-22T11:13:19;29.67;;;12.93;;
19985;SDS011;10154;52.474;10.768;2024-03-22T11:15:48;27.30;;;11.90;;
19985;SDS011;10154;52.474;10.768;2024-03-22T11:18:16;28.27;;;13.53;;
19985;SDS011;10154;52.474;10.768;2024-03-22T11:20:42;29.10;;;12.93;;
19985;SDS011;10154;52.474;10.768;2024-03-22T11:23:08;31.57;;;12.63;;
19985;SDS011;10154;52.474;10.768;2024-03-22T11:25:34;25.37;;;12.27;;
19985;SDS011;10154;52.474;10.768;2024-03-22T11:27:59;25.07;;;12.37;;
19985;SDS011;10154;52.474;10.768;2024-03-22T11:30:28;25.47;;;12.03;;
19985;SDS011;10154;52.474;10.768;2024-03-22T11:32:54;26.50;;;11.60;;
19985;SDS011;10154;52.474;10.768;2024-03-22T11:35:19;25.57;;;11.87;;
19985;SDS011;10154;52.474;10.768;2024-03-22T11:37:45;25.53;;;11.50;;
19985;SDS011;10154;52.474;10.768;2024-03-22T11:40:10;24.67;;;11.47;;
19985;SDS011;10154;52.474;10.768;2024-03-22T11:42:40;23.03;;;11.63;;
19985;SDS011;10154;52.474;10.768;2024-03-22T11:45:07;22.67;;;10.80;;
19985;SDS011;10154;52.474;10.768;2024-03-22T11:47:34;27.20;;;11.17;;
19985;SDS011;10154;52.474;10.768;2024-03-22T11:49:59;22.53;;;10.57;;
19985;SDS011;10154;52.474;10.768;2024-03-22T11:52:25;21.77;;;10.00;;
19985;SDS011;10154;52.474;10.768;2024-03-22T11:54:54;21.67;;;10.50;;
19985;SDS011;10154;52.474;10.768;2024-03-22T11:57:22;19.53;;;9.73;;
19985;SDS011;10154;52.474;10.768;2024-03-22T11:59:48;22.77;;;10.27;;
19985;SDS011;10154;52.474;10.768;2024-03-22T12:02:13;21.80;;;9.90;;
19985;SDS011;10154;52.474;10.768;2024-03-22T12:04:45;21.73;;;11.20;;
19985;SDS011;10154;52.474;10.768;2024-03-22T12:07:12;23.93;;;10.37;;
19985;SDS011;10154;52.474;10.768;2024-03-22T12:09:39;20.37;;;9.03;;
19985;SDS011;10154;52.474;10.768;2024-03-22T12:12:06;21.97;;;9.97;;
19985;SDS011;10154;52.474;10.768;2024-03-22T12:14:33;20.77;;;9.33;;
19985;SDS011;10154;52.474;10.768;2024-03-22T12:16:59;19.87;;;11.57;;
19985;SDS011;10154;52.474;10.768;2024-03-22T12:19:25;18.07;;;7.50;;
19985;SDS011;10154;52.474;10.768;2024-03-22T12:21:50;19.90;;;9.47;;
19985;SDS011;10154;52.474;10.768;2024-03-22T12:24:15;14.90;;;8.43;;
19985;SDS011;10154;52.474;10.768;2024-03-22T12:26:40;19.37;;;10.27;;
19985;SDS011;10154;52.474;10.768;2024-03-22T12:29:06;17.33;;;9.25;;
19985;SDS011;10154;52.474;10.768;2024-03-22T12:31:32;17.50;;;8.03;;
19985;SDS011;10154;52.474;10.768;2024-03-22T12:33:57;20.20;;;9.52;;
19985;SDS011;10154;52.474;10.768;2024-03-22T12:36:23;19.17;;;10.00;;
19985;SDS011;10154;52.474;10.768;2024-03-22T12:38:49;20.95;;;9.10;;
19985;SDS011;10154;52.474;10.768;2024-03-22T12:41:14;16.77;;;9.65;;
19985;SDS011;10154;52.474;10.768;2024-03-22T12:43:40;15.40;;;8.70;;
19985;SDS011;10154;52.474;10.768;2024-03-22T12:46:07;16.10;;;8.15;;
19985;SDS011;10154;52.474;10.768;2024-03-22T12:48:32;18.37;;;9.17;;
19985;SDS011;10154;52.474;10.768;2024-03-22T12:50:58;16.75;;;8.73;;
19985;SDS011;10154;52.474;10.768;2024-03-22T12:53:23;17.95;;;9.93;;
19985;SDS011;10154;52.474;10.768;2024-03-22T12:55:48;21.35;;;9.40;;
19985;SDS011;10154;52.474;10.768;2024-03-22T12:58:14;14.47;;;6.93;;
19985;SDS011;10154;52.474;10.768;2024-03-22T13:00:39;20.77;;;10.30;;
19985;SDS011;10154;52.474;10.768;2024-03-22T13:03:04;19.02;;;10.50;;
19985;SDS011;10154;52.474;10.768;2024-03-22T13:05:30;20.45;;;10.48;;
19985;SDS011;10154;52.474;10.768;2024-03-22T13:07:56;18.42;;;9.38;;
19985;SDS011;10154;52.474;10.768;2024-03-22T13:10:21;22.27;;;10.10;;
19985;SDS011;10154;52.474;10.768;2024-03-22T13:12:46;22.13;;;10.77;;
19985;SDS011;10154;52.474;10.768;2024-03-22T13:15:12;18.00;;;8.83;;
19985;SDS011;10154;52.474;10.768;2024-03-22T13:17:38;24.43;;;11.07;;
19985;SDS011;10154;52.474;10.768;2024-03-22T13:20:04;22.50;;;12.18;;
19985;SDS011;10154;52.474;10.768;2024-03-22T13:22:35;19.77;;;10.52;;
19985;SDS011;10154;52.474;10.768;2024-03-22T13:25:01;20.47;;;10.73;;
19985;SDS011;10154;52.474;10.768;2024-03-22T13:27:26;22.23;;;12.00;;
19985;SDS011;10154;52.474;10.768;2024-03-22T13:29:51;25.42;;;12.63;;
19985;SDS011;10154;52.474;10.768;2024-03-22T13:32:17;20.23;;;12.38;;
19985;SDS011;10154;52.474;10.768;2024-03-22T13:34:45;22.35;;;11.75;;
19985;SDS011;10154;52.474;10.768;2024-03-22T13:37:10;24.73;;;12.43;;
19985;SDS011;10154;52.474;10.768;2024-03-22T13:39:36;24.23;;;12.60;;
19985;SDS011;10154;52.474;10.768;2024-03-22T13:42:01;26.77;;;11.33;;
19985;SDS011;10154;52.474;10.768;2024-03-22T13:44:26;23.52;;;12.60;;
19985;SDS011;10154;52.474;10.768;2024-03-22T13:46:52;24.35;;;12.10;;
19985;SDS011;10154;52.474;10.768;2024-03-22T13:49:19;28.47;;;14.40;;
19985;SDS011;10154;52.474;10.768;2024-03-22T13:51:46;33.38;;;15.48;;
19985;SDS011;10154;52.474;10.768;2024-03-22T13:54:12;31.70;;;15.57;;
19985;SDS011;10154;52.474;10.768;2024-03-22T13:56:37;30.65;;;14.82;;
19985;SDS011;10154;52.474;10.768;2024-03-22T13:59:03;23.67;;;12.40;;
19985;SDS011;10154;52.474;10.768;2024-03-22T14:01:30;30.10;;;15.23;;
19985;SDS011;10154;52.474;10.768;2024-03-22T14:03:56;34.37;;;16.87;;